createdAt,value
2022-11-01T13:43:27.785Z,13.05
2022-11-01T13:46:18.838Z,14.07
2022-11-01T13:49:16.621Z,13.05
2022-11-01T13:51:49.433Z,13.57
2022-11-01T13:54:25.987Z,13.30
2022-11-01T13:56:59.801Z,14.23
2022-11-01T13:59:34.194Z,13.40
2022-11-01T14:02:34.153Z,13.75
2022-11-01T14:05:04.448Z,15.88
2022-11-01T14:07:34.745Z,14.25
2022-11-01T14:10:12.035Z,15.27
2022-11-01T14:12:44.912Z,14.25
2022-11-01T14:15:23.328Z,15.75
2022-11-01T14:18:04.413Z,13.98
2022-11-01T14:20:50.774Z,14.30
2022-11-01T14:23:51.043Z,14.60
2022-11-01T14:26:49.112Z,15.13
2022-11-01T14:29:17.367Z,15.15
2022-11-01T14:31:49.577Z,14.88
2022-11-01T14:34:32.765Z,15.68
2022-11-01T14:37:09.564Z,14.00
2022-11-01T14:39:42.341Z,13.93
2022-11-01T14:42:17.197Z,15.35
2022-11-01T14:44:50.460Z,16.20
2022-11-01T14:47:29.234Z,16.92
2022-11-01T14:50:02.289Z,15.15
2022-11-01T14:52:36.411Z,15.15
2022-11-01T14:55:13.607Z,13.80
2022-11-01T14:57:42.383Z,16.33
2022-11-01T15:00:23.008Z,15.13
2022-11-01T15:02:53.286Z,14.00
2022-11-01T15:05:21.920Z,14.80
2022-11-01T15:07:52.361Z,14.73
2022-11-01T15:10:21.158Z,14.93
2022-11-01T15:12:53.386Z,15.77
2022-11-01T15:15:24.361Z,15.85
2022-11-01T15:17:56.602Z,15.00
2022-11-01T15:20:27.551Z,17.55
2022-11-01T15:22:57.794Z,18.17
2022-11-01T15:25:27.591Z,18.58
2022-11-01T15:27:59.428Z,17.08
2022-11-01T15:30:30.290Z,17.60
2022-11-01T15:33:20.874Z,19.48
2022-11-01T15:35:55.479Z,18.15
2022-11-01T15:38:24.050Z,18.10
2022-11-01T15:40:53.274Z,20.13
2022-11-01T15:43:24.860Z,18.10
2022-11-01T15:45:55.123Z,17.05
2022-11-01T15:48:28.434Z,19.00
2022-11-01T15:51:00.744Z,18.23
2022-11-01T15:53:33.520Z,19.60
2022-11-01T15:56:06.041Z,19.27
2022-11-01T15:58:38.581Z,20.00
2022-11-01T16:01:13.174Z,19.33
2022-11-01T16:03:48.946Z,18.77
2022-11-01T16:06:27.397Z,17.73
2022-11-01T16:09:01.722Z,18.13
2022-11-01T16:11:33.916Z,20.58
2022-11-01T16:14:04.947Z,21.60
2022-11-01T16:16:57.984Z,18.80
2022-11-01T16:19:42.644Z,19.55
2022-11-01T16:22:39.035Z,19.00
2022-11-01T16:26:10.267Z,19.17
2022-11-01T16:28:40.727Z,18.50
2022-11-01T16:54:26.015Z,17.33
2022-11-01T16:56:58.410Z,16.98
2022-11-01T16:59:36.678Z,18.58
2022-11-01T17:02:16.840Z,18.77
2022-11-01T17:04:46.131Z,17.40
2022-11-01T17:07:14.406Z,17.80
2022-11-01T17:09:47.056Z,17.50
2022-11-01T17:12:15.275Z,16.45
2022-11-01T17:14:43.495Z,17.70
2022-11-01T17:17:15.769Z,17.50
2022-11-01T17:19:47.887Z,18.77
2022-11-01T17:22:19.427Z,18.77
2022-11-01T17:24:49.306Z,17.58
2022-11-01T17:27:18.641Z,18.02
2022-11-01T17:29:46.804Z,18.85
2022-11-01T17:32:14.941Z,17.60
2022-11-01T17:34:42.980Z,17.23
2022-11-01T17:37:17.073Z,19.98
2022-11-01T17:39:45.427Z,17.33
2022-11-01T17:42:14.929Z,19.55
2022-11-01T17:44:43.462Z,20.50
2022-11-01T17:47:15.352Z,18.88
2022-11-01T17:49:43.523Z,20.58
2022-11-01T17:52:11.908Z,20.33
2022-11-01T17:54:40.189Z,22.23
2022-11-01T17:57:08.453Z,21.55
2022-11-01T17:59:38.277Z,23.20
2022-11-01T18:02:06.534Z,22.60
2022-11-01T18:04:35.749Z,23.52
2022-11-01T18:07:05.306Z,23.80
2022-11-01T18:09:35.126Z,20.92
2022-11-01T18:12:10.143Z,22.55
2022-11-01T18:17:31.671Z,21.90
2022-11-01T18:20:05.645Z,21.20
2022-11-01T18:22:45.279Z,23.33
2022-11-01T18:25:27.022Z,22.83
2022-11-01T18:27:57.398Z,22.90
2022-11-01T18:30:26.945Z,24.10
2022-11-01T18:33:03.086Z,24.58
2022-11-01T18:35:35.969Z,25.30
2022-11-01T18:38:13.648Z,25.10
2022-11-01T18:40:52.011Z,23.15
2022-11-01T18:43:21.583Z,22.77
2022-11-01T18:46:22.773Z,24.50
2022-11-01T18:48:39.809Z,24.55
2022-11-01T18:51:14.996Z,24.50
2022-11-01T18:53:43.189Z,24.77
2022-11-01T18:56:21.831Z,26.50
2022-11-01T18:58:51.291Z,25.08
2022-11-01T19:01:24.915Z,25.65
2022-11-01T19:04:01.119Z,26.85
2022-11-01T19:06:32.565Z,26.95
2022-11-01T19:09:14.066Z,26.90
2022-11-01T19:11:42.130Z,26.30
2022-11-01T19:14:12.686Z,26.85
2022-11-01T19:16:42.819Z,27.42
2022-11-01T19:19:16.853Z,26.58
2022-11-01T19:21:45.334Z,27.90
2022-11-01T19:24:30.960Z,27.50
2022-11-01T19:27:00.297Z,27.27
2022-11-01T19:29:32.188Z,27.33
2022-11-01T19:32:04.683Z,27.42
2022-11-01T19:34:36.151Z,27.42
2022-11-01T19:37:08.495Z,27.70
2022-11-01T19:39:40.855Z,28.35
2022-11-01T19:42:20.584Z,26.50
2022-11-01T19:44:48.902Z,27.70
2022-11-01T19:47:34.384Z,28.13
2022-11-01T19:50:03.476Z,30.35
2022-11-01T19:52:36.103Z,31.15
2022-11-01T19:55:28.877Z,29.98
2022-11-01T19:57:57.782Z,29.45
2022-11-01T20:00:29.178Z,29.05
2022-11-01T20:03:02.030Z,28.80
2022-11-01T20:05:34.575Z,30.83
2022-11-01T20:08:15.360Z,30.15
2022-11-01T20:10:43.731Z,30.92
2022-11-01T20:13:18.488Z,30.88
2022-11-01T20:15:49.477Z,30.08
2022-11-01T20:18:19.534Z,31.42
2022-11-01T20:20:47.994Z,30.85
2022-11-01T20:23:31.595Z,28.75
2022-11-01T20:25:59.798Z,31.02
2022-11-01T20:28:28.172Z,28.92
2022-11-01T20:30:56.341Z,31.40
2022-11-01T20:33:26.531Z,31.67
2022-11-01T20:35:55.141Z,31.40
2022-11-01T20:38:23.471Z,31.63
2022-11-01T20:40:52.290Z,29.80
2022-11-01T20:43:20.473Z,30.92
2022-11-01T20:45:48.837Z,30.30
2022-11-01T20:48:18.261Z,30.20
2022-11-01T20:50:47.952Z,29.67
2022-11-01T20:53:16.585Z,29.88
2022-11-01T20:55:44.848Z,31.65
2022-11-01T20:58:14.041Z,29.58
2022-11-01T21:00:43.005Z,28.10
2022-11-01T21:03:15.399Z,28.58
2022-11-01T21:05:45.309Z,28.92
2022-11-01T21:08:22.524Z,29.42
2022-11-01T21:11:02.124Z,31.17
2022-11-01T21:13:32.228Z,31.05
2022-11-01T21:16:02.313Z,28.73
2022-11-01T21:18:39.763Z,31.10
2022-11-01T21:21:33.764Z,30.75
2022-11-01T21:24:34.494Z,31.48
2022-11-01T21:27:21.844Z,33.95
2022-11-01T21:29:51.398Z,34.72
2022-11-01T21:32:27.068Z,32.70
2022-11-01T21:34:55.480Z,34.20
2022-11-01T21:37:25.140Z,33.50
2022-11-01T21:40:01.584Z,34.47
2022-11-01T21:42:36.520Z,36.83
2022-11-01T21:45:28.393Z,34.10
2022-11-01T21:47:58.822Z,30.80
2022-11-01T21:50:26.797Z,33.28
2022-11-01T21:52:54.974Z,30.08
2022-11-01T21:55:23.133Z,28.08
2022-11-01T21:57:52.953Z,29.52
2022-11-01T22:00:21.465Z,30.95
2022-11-01T22:02:49.583Z,29.92
2022-11-01T22:05:17.606Z,31.65
2022-11-01T22:07:45.711Z,27.90
2022-11-01T22:10:13.727Z,29.88
2022-11-01T22:12:41.861Z,30.73
2022-11-01T22:15:13.559Z,27.40
2022-11-01T22:17:41.905Z,26.15
2022-11-01T22:20:10.535Z,30.98
2022-11-01T22:22:38.757Z,28.50
2022-11-01T22:25:07.835Z,28.17
2022-11-01T22:27:36.410Z,28.00
2022-11-01T22:30:06.712Z,27.08
2022-11-01T22:32:36.875Z,25.90
2022-11-01T22:35:05.243Z,28.35
2022-11-01T22:37:35.962Z,27.02
2022-11-01T22:40:12.067Z,28.02
2022-11-01T22:42:40.997Z,24.95
2022-11-01T22:45:15.334Z,27.58
2022-11-01T22:47:46.380Z,29.40
2022-11-01T22:50:23.431Z,27.10
2022-11-01T22:52:51.506Z,27.45
2022-11-01T22:55:24.330Z,29.85
2022-11-01T22:57:56.150Z,27.80
2022-11-01T23:00:28.794Z,28.13
2022-11-01T23:03:02.261Z,29.13
2022-11-01T23:05:30.771Z,26.27
2022-11-01T23:08:08.953Z,27.40
2022-11-01T23:10:38.053Z,28.88
2022-11-01T23:13:34.339Z,28.75
2022-11-01T23:16:04.472Z,30.02
2022-11-01T23:18:35.956Z,29.20
2022-11-01T23:21:08.419Z,29.50
2022-11-01T23:23:37.574Z,27.92
2022-11-01T23:26:05.936Z,31.45
2022-11-01T23:28:35.529Z,26.27
2022-11-01T23:31:05.425Z,31.05
2022-11-01T23:33:40.584Z,29.40
2022-11-01T23:36:17.477Z,29.23
2022-11-01T23:38:49.631Z,28.63
2022-11-01T23:41:23.563Z,29.55
2022-11-01T23:43:53.266Z,27.45
2022-11-01T23:46:21.374Z,27.83
2022-11-01T23:48:55.237Z,27.08
2022-11-01T23:51:23.307Z,29.23
2022-11-01T23:53:54.566Z,26.48
2022-11-01T23:56:23.864Z,25.13
2022-11-01T23:58:56.957Z,27.55
